sensor_id;sensor_type;location;lat;lon;timestamp;P1;durP1;ratioP1;P2;durP2;ratioP2
19780;SDS011;10050;55.492;13.506;2022-09-09T00:04:21;5.13;;;2.80;;
19780;SDS011;10050;55.492;13.506;2022-09-09T00:06:50;6.20;;;2.87;;
19780;SDS011;10050;55.492;13.506;2022-09-09T00:09:45;8.17;;;3.03;;
19780;SDS011;10050;55.492;13.506;2022-09-09T00:13:00;6.00;;;2.87;;
19780;SDS011;10050;55.492;13.506;2022-09-09T00:21:36;10.00;;;3.40;;
19780;SDS011;10050;55.492;13.506;2022-09-09T00:24:18;10.60;;;2.90;;
19780;SDS011;10050;55.492;13.506;2022-09-09T00:26:52;7.50;;;3.10;;
19780;SDS011;10050;55.492;13.506;2022-09-09T00:32:04;6.50;;;2.67;;
19780;SDS011;10050;55.492;13.506;2022-09-09T00:34:46;8.33;;;2.97;;
19780;SDS011;10050;55.492;13.506;2022-09-09T00:37:25;5.30;;;3.17;;
19780;SDS011;10050;55.492;13.506;2022-09-09T00:39:51;5.60;;;2.50;;
19780;SDS011;10050;55.492;13.506;2022-09-09T00:42:25;5.07;;;2.80;;
19780;SDS011;10050;55.492;13.506;2022-09-09T00:47:41;4.97;;;2.60;;
19780;SDS011;10050;55.492;13.506;2022-09-09T00:50:53;7.70;;;3.10;;
19780;SDS011;10050;55.492;13.506;2022-09-09T00:56:20;7.17;;;3.10;;
19780;SDS011;10050;55.492;13.506;2022-09-09T00:58:57;7.47;;;2.93;;
19780;SDS011;10050;55.492;13.506;2022-09-09T01:01:33;6.10;;;3.00;;
19780;SDS011;10050;55.492;13.506;2022-09-09T01:04:00;7.20;;;3.03;;
19780;SDS011;10050;55.492;13.506;2022-09-09T01:06:34;6.07;;;3.37;;
19780;SDS011;10050;55.492;13.506;2022-09-09T01:11:58;6.53;;;2.87;;
19780;SDS011;10050;55.492;13.506;2022-09-09T01:17:23;6.40;;;3.20;;
19780;SDS011;10050;55.492;13.506;2022-09-09T01:22:34;4.17;;;2.80;;
19780;SDS011;10050;55.492;13.506;2022-09-09T01:28:13;6.80;;;3.00;;
19780;SDS011;10050;55.492;13.506;2022-09-09T01:30:44;7.20;;;3.73;;
19780;SDS011;10050;55.492;13.506;2022-09-09T01:33:12;4.60;;;3.40;;
19780;SDS011;10050;55.492;13.506;2022-09-09T01:35:43;6.40;;;3.40;;
19780;SDS011;10050;55.492;13.506;2022-09-09T01:38:11;5.07;;;3.03;;
19780;SDS011;10050;55.492;13.506;2022-09-09T01:40:37;8.67;;;3.67;;
19780;SDS011;10050;55.492;13.506;2022-09-09T01:43:03;5.63;;;2.90;;
19780;SDS011;10050;55.492;13.506;2022-09-09T01:45:30;8.23;;;3.60;;
19780;SDS011;10050;55.492;13.506;2022-09-09T01:47:56;8.43;;;3.07;;
19780;SDS011;10050;55.492;13.506;2022-09-09T01:50:22;4.63;;;3.10;;
19780;SDS011;10050;55.492;13.506;2022-09-09T01:52:52;5.03;;;2.80;;
19780;SDS011;10050;55.492;13.506;2022-09-09T01:55:26;6.67;;;2.80;;
19780;SDS011;10050;55.492;13.506;2022-09-09T02:01:07;3.40;;;2.70;;
19780;SDS011;10050;55.492;13.506;2022-09-09T02:03:35;7.30;;;2.60;;
19780;SDS011;10050;55.492;13.506;2022-09-09T02:08:45;7.67;;;3.13;;
19780;SDS011;10050;55.492;13.506;2022-09-09T02:11:22;6.33;;;3.40;;
19780;SDS011;10050;55.492;13.506;2022-09-09T02:13:54;7.93;;;3.07;;
19780;SDS011;10050;55.492;13.506;2022-09-09T02:16:23;6.90;;;2.80;;
19780;SDS011;10050;55.492;13.506;2022-09-09T02:19:01;3.53;;;2.87;;
19780;SDS011;10050;55.492;13.506;2022-09-09T02:21:34;4.90;;;2.33;;
19780;SDS011;10050;55.492;13.506;2022-09-09T02:24:00;9.73;;;4.00;;
19780;SDS011;10050;55.492;13.506;2022-09-09T02:26:30;10.30;;;4.33;;
19780;SDS011;10050;55.492;13.506;2022-09-09T02:28:59;4.27;;;3.40;;
19780;SDS011;10050;55.492;13.506;2022-09-09T02:31:28;7.33;;;3.13;;
19780;SDS011;10050;55.492;13.506;2022-09-09T02:33:55;5.60;;;3.17;;
19780;SDS011;10050;55.492;13.506;2022-09-09T02:36:26;6.63;;;3.27;;
19780;SDS011;10050;55.492;13.506;2022-09-09T02:38:58;6.23;;;3.37;;
19780;SDS011;10050;55.492;13.506;2022-09-09T02:41:35;5.97;;;2.77;;
19780;SDS011;10050;55.492;13.506;2022-09-09T02:44:16;7.37;;;2.87;;
19780;SDS011;10050;55.492;13.506;2022-09-09T02:52:14;3.67;;;3.20;;
19780;SDS011;10050;55.492;13.506;2022-09-09T02:54:42;6.70;;;3.17;;
19780;SDS011;10050;55.492;13.506;2022-09-09T02:57:19;6.60;;;3.30;;
19780;SDS011;10050;55.492;13.506;2022-09-09T02:59:52;8.67;;;3.50;;
19780;SDS011;10050;55.492;13.506;2022-09-09T03:02:18;8.67;;;3.73;;
19780;SDS011;10050;55.492;13.506;2022-09-09T03:04:44;8.03;;;3.60;;
19780;SDS011;10050;55.492;13.506;2022-09-09T03:07:15;4.33;;;3.10;;
19780;SDS011;10050;55.492;13.506;2022-09-09T03:09:42;6.67;;;3.30;;
19780;SDS011;10050;55.492;13.506;2022-09-09T03:12:08;5.30;;;3.53;;
19780;SDS011;10050;55.492;13.506;2022-09-09T03:14:36;8.40;;;3.40;;
19780;SDS011;10050;55.492;13.506;2022-09-09T03:17:03;4.17;;;3.43;;
19780;SDS011;10050;55.492;13.506;2022-09-09T03:19:29;6.13;;;3.33;;
19780;SDS011;10050;55.492;13.506;2022-09-09T03:21:55;4.90;;;3.30;;
19780;SDS011;10050;55.492;13.506;2022-09-09T03:24:20;8.40;;;4.50;;
19780;SDS011;10050;55.492;13.506;2022-09-09T03:26:47;8.60;;;4.40;;
19780;SDS011;10050;55.492;13.506;2022-09-09T03:29:13;5.03;;;3.60;;
19780;SDS011;10050;55.492;13.506;2022-09-09T03:31:39;10.17;;;4.43;;
19780;SDS011;10050;55.492;13.506;2022-09-09T03:34:05;4.73;;;3.30;;
19780;SDS011;10050;55.492;13.506;2022-09-09T03:36:31;6.67;;;3.40;;
19780;SDS011;10050;55.492;13.506;2022-09-09T03:38:58;4.80;;;3.10;;
19780;SDS011;10050;55.492;13.506;2022-09-09T03:41:24;9.20;;;4.17;;
19780;SDS011;10050;55.492;13.506;2022-09-09T03:43:51;3.80;;;3.10;;
19780;SDS011;10050;55.492;13.506;2022-09-09T03:46:21;3.97;;;3.03;;
19780;SDS011;10050;55.492;13.506;2022-09-09T03:48:48;4.50;;;3.60;;
19780;SDS011;10050;55.492;13.506;2022-09-09T03:51:14;6.63;;;3.60;;
19780;SDS011;10050;55.492;13.506;2022-09-09T03:53:41;9.13;;;3.93;;
19780;SDS011;10050;55.492;13.506;2022-09-09T03:56:06;4.97;;;3.60;;
19780;SDS011;10050;55.492;13.506;2022-09-09T03:58:32;9.40;;;3.63;;
19780;SDS011;10050;55.492;13.506;2022-09-09T04:01:01;7.93;;;3.60;;
19780;SDS011;10050;55.492;13.506;2022-09-09T04:03:29;6.17;;;3.40;;
19780;SDS011;10050;55.492;13.506;2022-09-09T04:05:55;6.10;;;3.80;;
19780;SDS011;10050;55.492;13.506;2022-09-09T04:08:23;7.20;;;3.43;;
19780;SDS011;10050;55.492;13.506;2022-09-09T04:10:51;8.60;;;4.20;;
19780;SDS011;10050;55.492;13.506;2022-09-09T04:13:18;7.27;;;3.77;;
19780;SDS011;10050;55.492;13.506;2022-09-09T04:15:50;5.37;;;4.07;;
19780;SDS011;10050;55.492;13.506;2022-09-09T04:18:16;7.27;;;4.30;;
19780;SDS011;10050;55.492;13.506;2022-09-09T04:20:42;5.20;;;3.70;;
19780;SDS011;10050;55.492;13.506;2022-09-09T04:23:08;9.20;;;4.30;;
19780;SDS011;10050;55.492;13.506;2022-09-09T04:25:34;5.23;;;3.63;;
19780;SDS011;10050;55.492;13.506;2022-09-09T04:28:00;8.13;;;3.80;;
19780;SDS011;10050;55.492;13.506;2022-09-09T04:30:25;8.03;;;4.50;;
19780;SDS011;10050;55.492;13.506;2022-09-09T04:32:52;5.93;;;3.90;;
19780;SDS011;10050;55.492;13.506;2022-09-09T04:35:18;6.97;;;4.50;;
19780;SDS011;10050;55.492;13.506;2022-09-09T04:37:45;6.67;;;4.20;;
19780;SDS011;10050;55.492;13.506;2022-09-09T04:40:10;9.73;;;4.60;;
19780;SDS011;10050;55.492;13.506;2022-09-09T04:42:37;5.93;;;3.97;;
19780;SDS011;10050;55.492;13.506;2022-09-09T04:45:03;9.40;;;4.90;;
19780;SDS011;10050;55.492;13.506;2022-09-09T04:47:30;6.20;;;4.20;;
19780;SDS011;10050;55.492;13.506;2022-09-09T04:49:55;6.40;;;4.73;;
19780;SDS011;10050;55.492;13.506;2022-09-09T04:52:21;10.87;;;4.70;;
19780;SDS011;10050;55.492;13.506;2022-09-09T04:54:47;7.77;;;4.40;;
19780;SDS011;10050;55.492;13.506;2022-09-09T04:57:13;6.17;;;4.23;;
19780;SDS011;10050;55.492;13.506;2022-09-09T04:59:39;9.47;;;3.87;;
19780;SDS011;10050;55.492;13.506;2022-09-09T05:02:05;9.97;;;4.13;;
19780;SDS011;10050;55.492;13.506;2022-09-09T05:04:31;7.60;;;4.53;;
19780;SDS011;10050;55.492;13.506;2022-09-09T05:06:56;6.70;;;4.10;;
19780;SDS011;10050;55.492;13.506;2022-09-09T05:09:22;4.87;;;4.33;;
19780;SDS011;10050;55.492;13.506;2022-09-09T05:11:47;7.60;;;4.50;;
19780;SDS011;10050;55.492;13.506;2022-09-09T05:14:13;5.30;;;4.40;;
19780;SDS011;10050;55.492;13.506;2022-09-09T05:16:40;11.40;;;4.00;;
19780;SDS011;10050;55.492;13.506;2022-09-09T05:19:05;8.57;;;4.70;;
19780;SDS011;10050;55.492;13.506;2022-09-09T05:21:33;10.47;;;4.77;;
19780;SDS011;10050;55.492;13.506;2022-09-09T05:23:59;6.80;;;4.13;;
19780;SDS011;10050;55.492;13.506;2022-09-09T05:26:25;7.37;;;3.80;;
19780;SDS011;10050;55.492;13.506;2022-09-09T05:28:51;7.47;;;3.70;;
19780;SDS011;10050;55.492;13.506;2022-09-09T05:31:17;11.37;;;4.07;;
19780;SDS011;10050;55.492;13.506;2022-09-09T05:33:44;11.37;;;4.20;;
19780;SDS011;10050;55.492;13.506;2022-09-09T05:36:11;8.20;;;4.17;;
19780;SDS011;10050;55.492;13.506;2022-09-09T05:38:39;8.90;;;5.33;;
19780;SDS011;10050;55.492;13.506;2022-09-09T05:41:06;13.23;;;4.77;;
19780;SDS011;10050;55.492;13.506;2022-09-09T05:43:32;12.40;;;4.43;;
19780;SDS011;10050;55.492;13.506;2022-09-09T05:48:31;9.63;;;4.40;;
19780;SDS011;10050;55.492;13.506;2022-09-09T05:50:59;8.00;;;4.80;;
19780;SDS011;10050;55.492;13.506;2022-09-09T05:53:26;6.87;;;4.20;;
19780;SDS011;10050;55.492;13.506;2022-09-09T05:55:59;8.07;;;4.60;;
19780;SDS011;10050;55.492;13.506;2022-09-09T05:58:32;22.50;;;9.53;;
19780;SDS011;10050;55.492;13.506;2022-09-09T06:03:33;21.53;;;11.43;;
19780;SDS011;10050;55.492;13.506;2022-09-09T06:06:00;18.38;;;11.55;;
19780;SDS011;10050;55.492;13.506;2022-09-09T06:08:30;7.77;;;5.20;;
19780;SDS011;10050;55.492;13.506;2022-09-09T06:11:09;7.30;;;4.53;;
19780;SDS011;10050;55.492;13.506;2022-09-09T06:13:37;6.03;;;4.13;;
19780;SDS011;10050;55.492;13.506;2022-09-09T06:16:04;6.90;;;3.80;;
19780;SDS011;10050;55.492;13.506;2022-09-09T06:18:32;6.90;;;4.30;;
19780;SDS011;10050;55.492;13.506;2022-09-09T06:21:02;5.30;;;4.03;;
19780;SDS011;10050;55.492;13.506;2022-09-09T06:23:30;7.47;;;3.90;;
19780;SDS011;10050;55.492;13.506;2022-09-09T06:26:06;5.67;;;4.63;;
19780;SDS011;10050;55.492;13.506;2022-09-09T06:28:39;6.77;;;4.03;;
19780;SDS011;10050;55.492;13.506;2022-09-09T06:31:07;5.10;;;3.90;;
19780;SDS011;10050;55.492;13.506;2022-09-09T06:33:39;7.27;;;3.70;;
19780;SDS011;10050;55.492;13.506;2022-09-09T06:36:14;4.37;;;3.50;;
19780;SDS011;10050;55.492;13.506;2022-09-09T06:38:41;4.90;;;3.83;;
19780;SDS011;10050;55.492;13.506;2022-09-09T06:41:08;6.33;;;3.70;;
19780;SDS011;10050;55.492;13.506;2022-09-09T06:43:34;4.67;;;3.03;;
19780;SDS011;10050;55.492;13.506;2022-09-09T06:46:01;4.67;;;3.30;;
19780;SDS011;10050;55.492;13.506;2022-09-09T06:48:30;4.57;;;3.27;;
19780;SDS011;10050;55.492;13.506;2022-09-09T06:53:46;4.40;;;4.07;;
19780;SDS011;10050;55.492;13.506;2022-09-09T06:56:27;5.97;;;3.83;;
19780;SDS011;10050;55.492;13.506;2022-09-09T06:58:58;5.00;;;3.47;;
19780;SDS011;10050;55.492;13.506;2022-09-09T07:01:29;4.00;;;3.60;;
19780;SDS011;10050;55.492;13.506;2022-09-09T07:03:56;8.77;;;3.80;;
19780;SDS011;10050;55.492;13.506;2022-09-09T07:06:27;6.27;;;3.33;;
19780;SDS011;10050;55.492;13.506;2022-09-09T07:08:58;8.63;;;3.50;;
19780;SDS011;10050;55.492;13.506;2022-09-09T07:11:29;3.50;;;3.20;;
19780;SDS011;10050;55.492;13.506;2022-09-09T07:13:57;3.80;;;3.00;;
19780;SDS011;10050;55.492;13.506;2022-09-09T07:16:24;5.27;;;2.83;;
19780;SDS011;10050;55.492;13.506;2022-09-09T07:18:51;3.30;;;3.10;;
19780;SDS011;10050;55.492;13.506;2022-09-09T07:21:17;3.93;;;3.07;;
19780;SDS011;10050;55.492;13.506;2022-09-09T07:23:44;5.47;;;3.53;;
19780;SDS011;10050;55.492;13.506;2022-09-09T07:26:10;3.50;;;3.00;;
19780;SDS011;10050;55.492;13.506;2022-09-09T07:28:40;4.73;;;3.30;;
19780;SDS011;10050;55.492;13.506;2022-09-09T07:31:08;3.60;;;3.30;;
19780;SDS011;10050;55.492;13.506;2022-09-09T07:33:41;3.27;;;2.90;;
19780;SDS011;10050;55.492;13.506;2022-09-09T07:36:08;5.50;;;3.23;;
19780;SDS011;10050;55.492;13.506;2022-09-09T07:38:40;4.63;;;3.10;;
19780;SDS011;10050;55.492;13.506;2022-09-09T07:41:09;4.93;;;3.80;;
19780;SDS011;10050;55.492;13.506;2022-09-09T07:43:39;6.33;;;3.53;;
19780;SDS011;10050;55.492;13.506;2022-09-09T07:46:09;5.03;;;3.53;;
19780;SDS011;10050;55.492;13.506;2022-09-09T07:48:37;3.83;;;3.43;;
19780;SDS011;10050;55.492;13.506;2022-09-09T07:51:04;4.00;;;3.33;;
19780;SDS011;10050;55.492;13.506;2022-09-09T07:53:41;7.20;;;3.70;;
19780;SDS011;10050;55.492;13.506;2022-09-09T07:56:10;3.73;;;3.40;;
19780;SDS011;10050;55.492;13.506;2022-09-09T07:58:37;4.40;;;4.00;;
19780;SDS011;10050;55.492;13.506;2022-09-09T08:01:11;3.47;;;3.17;;
19780;SDS011;10050;55.492;13.506;2022-09-09T08:03:43;3.40;;;3.03;;
19780;SDS011;10050;55.492;13.506;2022-09-09T08:06:09;3.50;;;3.20;;
19780;SDS011;10050;55.492;13.506;2022-09-09T08:08:37;3.83;;;3.50;;
19780;SDS011;10050;55.492;13.506;2022-09-09T08:11:04;4.60;;;3.50;;
19780;SDS011;10050;55.492;13.506;2022-09-09T08:13:33;3.77;;;3.50;;
19780;SDS011;10050;55.492;13.506;2022-09-09T08:16:13;4.00;;;3.50;;
19780;SDS011;10050;55.492;13.506;2022-09-09T08:18:40;5.90;;;3.97;;
19780;SDS011;10050;55.492;13.506;2022-09-09T08:21:07;3.60;;;3.30;;
19780;SDS011;10050;55.492;13.506;2022-09-09T08:23:38;4.77;;;3.57;;
19780;SDS011;10050;55.492;13.506;2022-09-09T08:26:12;5.20;;;4.27;;
19780;SDS011;10050;55.492;13.506;2022-09-09T08:28:39;4.30;;;3.83;;
19780;SDS011;10050;55.492;13.506;2022-09-09T08:31:07;4.97;;;3.97;;
19780;SDS011;10050;55.492;13.506;2022-09-09T08:33:37;5.87;;;4.23;;
19780;SDS011;10050;55.492;13.506;2022-09-09T08:36:04;4.83;;;3.77;;
19780;SDS011;10050;55.492;13.506;2022-09-09T08:38:30;4.00;;;3.47;;
19780;SDS011;10050;55.492;13.506;2022-09-09T08:44:14;3.93;;;3.63;;
19780;SDS011;10050;55.492;13.506;2022-09-09T08:52:31;5.83;;;4.70;;
19780;SDS011;10050;55.492;13.506;2022-09-09T08:55:03;5.03;;;4.63;;
19780;SDS011;10050;55.492;13.506;2022-09-09T08:57:51;5.67;;;5.00;;
19780;SDS011;10050;55.492;13.506;2022-09-09T09:00:19;5.47;;;4.97;;
19780;SDS011;10050;55.492;13.506;2022-09-09T09:02:54;5.63;;;5.17;;
19780;SDS011;10050;55.492;13.506;2022-09-09T09:05:34;5.70;;;5.20;;
19780;SDS011;10050;55.492;13.506;2022-09-09T09:10:58;5.10;;;4.60;;
19780;SDS011;10050;55.492;13.506;2022-09-09T09:16:20;5.73;;;5.23;;
19780;SDS011;10050;55.492;13.506;2022-09-09T09:18:51;4.87;;;4.47;;
19780;SDS011;10050;55.492;13.506;2022-09-09T09:21:27;5.27;;;4.63;;
19780;SDS011;10050;55.492;13.506;2022-09-09T09:24:00;4.80;;;4.40;;
19780;SDS011;10050;55.492;13.506;2022-09-09T09:26:34;3.87;;;3.57;;
19780;SDS011;10050;55.492;13.506;2022-09-09T09:29:10;4.07;;;3.70;;
19780;SDS011;10050;55.492;13.506;2022-09-09T09:31:51;4.10;;;3.80;;
19780;SDS011;10050;55.492;13.506;2022-09-09T09:34:22;3.77;;;3.57;;
19780;SDS011;10050;55.492;13.506;2022-09-09T09:37:00;4.20;;;3.80;;
19780;SDS011;10050;55.492;13.506;2022-09-09T09:41:53;4.27;;;3.97;;
19780;SDS011;10050;55.492;13.506;2022-09-09T09:44:29;4.67;;;4.10;;
19780;SDS011;10050;55.492;13.506;2022-09-09T09:49:31;3.70;;;3.40;;
19780;SDS011;10050;55.492;13.506;2022-09-09T09:52:02;3.07;;;2.83;;
19780;SDS011;10050;55.492;13.506;2022-09-09T09:54:29;2.83;;;2.63;;
19780;SDS011;10050;55.492;13.506;2022-09-09T09:57:07;3.10;;;2.90;;
19780;SDS011;10050;55.492;13.506;2022-09-09T09:59:38;3.00;;;2.80;;
19780;SDS011;10050;55.492;13.506;2022-09-09T10:02:13;3.30;;;3.00;;
19780;SDS011;10050;55.492;13.506;2022-09-09T10:04:43;2.87;;;2.67;;
19780;SDS011;10050;55.492;13.506;2022-09-09T10:07:17;3.40;;;3.20;;
19780;SDS011;10050;55.492;13.506;2022-09-09T10:09:44;4.40;;;4.00;;
19780;SDS011;10050;55.492;13.506;2022-09-09T10:12:22;5.30;;;4.80;;
19780;SDS011;10050;55.492;13.506;2022-09-09T10:17:57;5.20;;;4.70;;
19780;SDS011;10050;55.492;13.506;2022-09-09T10:24:25;4.80;;;4.30;;
19780;SDS011;10050;55.492;13.506;2022-09-09T10:27:29;4.37;;;3.97;;
19780;SDS011;10050;55.492;13.506;2022-09-09T10:30:12;4.20;;;3.90;;
19780;SDS011;10050;55.492;13.506;2022-09-09T10:32:46;6.57;;;4.20;;
19780;SDS011;10050;55.492;13.506;2022-09-09T10:35:30;4.77;;;4.37;;
19780;SDS011;10050;55.492;13.506;2022-09-09T10:41:06;4.60;;;4.20;;
19780;SDS011;10050;55.492;13.506;2022-09-09T10:43:59;4.27;;;3.70;;
19780;SDS011;10050;55.492;13.506;2022-09-09T10:52:11;3.77;;;3.40;;
19780;SDS011;10050;55.492;13.506;2022-09-09T10:54:57;4.03;;;3.73;;
19780;SDS011;10050;55.492;13.506;2022-09-09T10:57:29;5.40;;;4.87;;
19780;SDS011;10050;55.492;13.506;2022-09-09T11:00:05;4.53;;;4.13;;
19780;SDS011;10050;55.492;13.506;2022-09-09T11:02:39;4.83;;;4.43;;
19780;SDS011;10050;55.492;13.506;2022-09-09T11:05:14;4.87;;;4.33;;
19780;SDS011;10050;55.492;13.506;2022-09-09T11:10:41;6.03;;;4.80;;
19780;SDS011;10050;55.492;13.506;2022-09-09T11:13:22;5.03;;;4.57;;
19780;SDS011;10050;55.492;13.506;2022-09-09T11:16:01;5.60;;;5.10;;
19780;SDS011;10050;55.492;13.506;2022-09-09T11:18:40;4.90;;;4.50;;
19780;SDS011;10050;55.492;13.506;2022-09-09T11:21:10;7.10;;;4.33;;
19780;SDS011;10050;55.492;13.506;2022-09-09T11:24:20;4.77;;;4.37;;
19780;SDS011;10050;55.492;13.506;2022-09-09T11:27:13;4.73;;;4.33;;
19780;SDS011;10050;55.492;13.506;2022-09-09T11:40:37;7.93;;;4.50;;
19780;SDS011;10050;55.492;13.506;2022-09-09T11:43:04;7.07;;;4.20;;
19780;SDS011;10050;55.492;13.506;2022-09-09T11:45:31;5.87;;;5.13;;
19780;SDS011;10050;55.492;13.506;2022-09-09T11:47:59;5.07;;;4.57;;
19780;SDS011;10050;55.492;13.506;2022-09-09T11:50:27;6.67;;;4.83;;
19780;SDS011;10050;55.492;13.506;2022-09-09T11:55:39;6.17;;;4.50;;
19780;SDS011;10050;55.492;13.506;2022-09-09T11:58:05;5.10;;;4.57;;
19780;SDS011;10050;55.492;13.506;2022-09-09T12:00:45;4.75;;;4.35;;
19780;SDS011;10050;55.492;13.506;2022-09-09T12:06:30;4.43;;;4.03;;
19780;SDS011;10050;55.492;13.506;2022-09-09T12:09:08;4.00;;;3.60;;
19780;SDS011;10050;55.492;13.506;2022-09-09T12:14:38;3.83;;;3.53;;
19780;SDS011;10050;55.492;13.506;2022-09-09T12:17:23;4.70;;;3.70;;
19780;SDS011;10050;55.492;13.506;2022-09-09T12:22:51;3.77;;;3.47;;
19780;SDS011;10050;55.492;13.506;2022-09-09T12:25:58;6.33;;;3.40;;
19780;SDS011;10050;55.492;13.506;2022-09-09T12:31:21;3.97;;;2.97;;
19780;SDS011;10050;55.492;13.506;2022-09-09T12:33:49;3.40;;;3.10;;
19780;SDS011;10050;55.492;13.506;2022-09-09T12:36:27;3.00;;;2.80;;
19780;SDS011;10050;55.492;13.506;2022-09-09T12:38:58;3.87;;;2.97;;
19780;SDS011;10050;55.492;13.506;2022-09-09T12:41:35;3.37;;;3.07;;
19780;SDS011;10050;55.492;13.506;2022-09-09T12:44:08;4.03;;;3.40;;
19780;SDS011;10050;55.492;13.506;2022-09-09T12:46:36;4.17;;;3.60;;
19780;SDS011;10050;55.492;13.506;2022-09-09T12:49:18;4.70;;;4.30;;
19780;SDS011;10050;55.492;13.506;2022-09-09T12:52:44;5.30;;;4.50;;
19780;SDS011;10050;55.492;13.506;2022-09-09T12:54:49;4.17;;;3.87;;
19780;SDS011;10050;55.492;13.506;2022-09-09T12:57:18;3.93;;;3.63;;
19780;SDS011;10050;55.492;13.506;2022-09-09T12:59:48;4.23;;;3.83;;
19780;SDS011;10050;55.492;13.506;2022-09-09T13:02:24;4.10;;;3.70;;
19780;SDS011;10050;55.492;13.506;2022-09-09T13:04:51;6.50;;;3.60;;
19780;SDS011;10050;55.492;13.506;2022-09-09T13:07:19;3.50;;;3.20;;
19780;SDS011;10050;55.492;13.506;2022-09-09T13:09:47;2.93;;;2.73;;
19780;SDS011;10050;55.492;13.506;2022-09-09T13:12:23;3.37;;;3.03;;
19780;SDS011;10050;55.492;13.506;2022-09-09T13:14:50;4.47;;;3.20;;
19780;SDS011;10050;55.492;13.506;2022-09-09T13:17:23;3.70;;;2.43;;
19780;SDS011;10050;55.492;13.506;2022-09-09T13:19:59;2.87;;;2.67;;
19780;SDS011;10050;55.492;13.506;2022-09-09T13:25:00;2.63;;;2.47;;
19780;SDS011;10050;55.492;13.506;2022-09-09T13:27:33;3.10;;;2.70;;
19780;SDS011;10050;55.492;13.506;2022-09-09T13:30:19;2.93;;;2.73;;
19780;SDS011;10050;55.492;13.506;2022-09-09T13:35:57;2.50;;;2.30;;
19780;SDS011;10050;55.492;13.506;2022-09-09T13:38:23;2.27;;;2.17;;
19780;SDS011;10050;55.492;13.506;2022-09-09T13:43:36;2.73;;;2.53;;
19780;SDS011;10050;55.492;13.506;2022-09-09T13:46:24;2.57;;;2.47;;
19780;SDS011;10050;55.492;13.506;2022-09-09T13:48:56;2.50;;;2.40;;
19780;SDS011;10050;55.492;13.506;2022-09-09T13:51:42;2.90;;;2.67;;
19780;SDS011;10050;55.492;13.506;2022-09-09T13:54:13;3.30;;;3.10;;
19780;SDS011;10050;55.492;13.506;2022-09-09T13:56:40;3.17;;;2.97;;
19780;SDS011;10050;55.492;13.506;2022-09-09T13:59:14;3.30;;;3.10;;
19780;SDS011;10050;55.492;13.506;2022-09-09T14:01:41;4.50;;;3.17;;
19780;SDS011;10050;55.492;13.506;2022-09-09T14:04:08;3.40;;;3.10;;
19780;SDS011;10050;55.492;13.506;2022-09-09T14:06:35;3.60;;;3.30;;
19780;SDS011;10050;55.492;13.506;2022-09-09T14:09:03;4.13;;;3.80;;
19780;SDS011;10050;55.492;13.506;2022-09-09T14:11:34;3.80;;;3.43;;
19780;SDS011;10050;55.492;13.506;2022-09-09T14:14:00;3.93;;;3.60;;
19780;SDS011;10050;55.492;13.506;2022-09-09T14:16:26;4.90;;;3.33;;
19780;SDS011;10050;55.492;13.506;2022-09-09T14:18:52;3.33;;;3.03;;
19780;SDS011;10050;55.492;13.506;2022-09-09T14:21:18;9.33;;;3.40;;
19780;SDS011;10050;55.492;13.506;2022-09-09T14:23:43;4.73;;;4.40;;
19780;SDS011;10050;55.492;13.506;2022-09-09T14:26:09;4.27;;;3.97;;
19780;SDS011;10050;55.492;13.506;2022-09-09T14:28:35;5.00;;;4.20;;
19780;SDS011;10050;55.492;13.506;2022-09-09T14:31:02;5.03;;;4.60;;
19780;SDS011;10050;55.492;13.506;2022-09-09T14:33:29;5.40;;;5.00;;
19780;SDS011;10050;55.492;13.506;2022-09-09T14:35:56;5.37;;;4.60;;
19780;SDS011;10050;55.492;13.506;2022-09-09T14:38:22;6.17;;;5.57;;
19780;SDS011;10050;55.492;13.506;2022-09-09T14:40:48;6.77;;;5.03;;
19780;SDS011;10050;55.492;13.506;2022-09-09T14:43:13;5.07;;;4.67;;
19780;SDS011;10050;55.492;13.506;2022-09-09T14:45:39;6.30;;;5.70;;
19780;SDS011;10050;55.492;13.506;2022-09-09T14:48:05;5.70;;;5.20;;
19780;SDS011;10050;55.492;13.506;2022-09-09T14:50:31;5.78;;;5.15;;
19780;SDS011;10050;55.492;13.506;2022-09-09T14:52:56;10.50;;;5.00;;
19780;SDS011;10050;55.492;13.506;2022-09-09T14:55:22;4.77;;;4.47;;
19780;SDS011;10050;55.492;13.506;2022-09-09T14:57:48;5.13;;;4.60;;
19780;SDS011;10050;55.492;13.506;2022-09-09T15:00:14;4.47;;;4.17;;
19780;SDS011;10050;55.492;13.506;2022-09-09T15:02:40;5.83;;;4.97;;
19780;SDS011;10050;55.492;13.506;2022-09-09T15:05:06;5.07;;;4.57;;
19780;SDS011;10050;55.492;13.506;2022-09-09T15:07:33;4.90;;;4.50;;
19780;SDS011;10050;55.492;13.506;2022-09-09T15:09:59;4.97;;;3.70;;
19780;SDS011;10050;55.492;13.506;2022-09-09T15:12:24;4.67;;;4.27;;
19780;SDS011;10050;55.492;13.506;2022-09-09T15:14:50;4.57;;;4.27;;
19780;SDS011;10050;55.492;13.506;2022-09-09T15:17:16;4.80;;;4.40;;
19780;SDS011;10050;55.492;13.506;2022-09-09T15:19:41;4.90;;;4.37;;
19780;SDS011;10050;55.492;13.506;2022-09-09T15:22:07;5.60;;;5.10;;
19780;SDS011;10050;55.492;13.506;2022-09-09T15:24:34;5.07;;;4.57;;
19780;SDS011;10050;55.492;13.506;2022-09-09T15:27:00;5.17;;;4.77;;
19780;SDS011;10050;55.492;13.506;2022-09-09T15:29:26;4.83;;;4.23;;
19780;SDS011;10050;55.492;13.506;2022-09-09T15:31:55;5.07;;;4.60;;
19780;SDS011;10050;55.492;13.506;2022-09-09T15:34:21;5.63;;;4.67;;
19780;SDS011;10050;55.492;13.506;2022-09-09T15:36:47;5.33;;;4.10;;
19780;SDS011;10050;55.492;13.506;2022-09-09T15:39:14;6.00;;;4.70;;
19780;SDS011;10050;55.492;13.506;2022-09-09T15:41:41;6.17;;;4.73;;
19780;SDS011;10050;55.492;13.506;2022-09-09T15:44:11;5.07;;;4.53;;
19780;SDS011;10050;55.492;13.506;2022-09-09T15:51:31;7.40;;;5.00;;
19780;SDS011;10050;55.492;13.506;2022-09-09T15:53:58;5.33;;;4.80;;
19780;SDS011;10050;55.492;13.506;2022-09-09T15:56:25;5.10;;;4.70;;
19780;SDS011;10050;55.492;13.506;2022-09-09T15:58:52;4.93;;;4.40;;
19780;SDS011;10050;55.492;13.506;2022-09-09T16:01:19;5.00;;;4.60;;
19780;SDS011;10050;55.492;13.506;2022-09-09T16:03:45;5.57;;;4.20;;
19780;SDS011;10050;55.492;13.506;2022-09-09T16:06:12;5.00;;;4.60;;
19780;SDS011;10050;55.492;13.506;2022-09-09T16:08:40;7.30;;;5.10;;
19780;SDS011;10050;55.492;13.506;2022-09-09T16:11:09;6.00;;;5.40;;
19780;SDS011;10050;55.492;13.506;2022-09-09T16:13:37;6.17;;;5.57;;
19780;SDS011;10050;55.492;13.506;2022-09-09T16:16:07;5.83;;;5.30;;
19780;SDS011;10050;55.492;13.506;2022-09-09T16:18:37;6.23;;;5.63;;
19780;SDS011;10050;55.492;13.506;2022-09-09T16:21:18;6.63;;;6.10;;
19780;SDS011;10050;55.492;13.506;2022-09-09T16:23:45;6.37;;;5.63;;
19780;SDS011;10050;55.492;13.506;2022-09-09T16:26:12;6.70;;;6.10;;
19780;SDS011;10050;55.492;13.506;2022-09-09T16:28:39;6.13;;;5.53;;
19780;SDS011;10050;55.492;13.506;2022-09-09T16:31:08;5.97;;;5.27;;
19780;SDS011;10050;55.492;13.506;2022-09-09T16:33:37;5.60;;;5.00;;
19780;SDS011;10050;55.492;13.506;2022-09-09T16:36:06;5.30;;;4.80;;
19780;SDS011;10050;55.492;13.506;2022-09-09T16:38:37;7.20;;;5.57;;
19780;SDS011;10050;55.492;13.506;2022-09-09T16:41:04;5.13;;;4.73;;
19780;SDS011;10050;55.492;13.506;2022-09-09T16:43:31;7.47;;;5.67;;
19780;SDS011;10050;55.492;13.506;2022-09-09T16:46:00;6.30;;;5.70;;
19780;SDS011;10050;55.492;13.506;2022-09-09T16:48:30;7.07;;;5.80;;
19780;SDS011;10050;55.492;13.506;2022-09-09T16:51:02;5.00;;;4.60;;
19780;SDS011;10050;55.492;13.506;2022-09-09T16:53:31;6.33;;;5.73;;
19780;SDS011;10050;55.492;13.506;2022-09-09T16:55:57;7.77;;;5.00;;
19780;SDS011;10050;55.492;13.506;2022-09-09T16:58:23;7.40;;;5.97;;